Time;durP1;ratioP1;P1;durP2;ratioP2;P2;SDS_P1;SDS_P2;PMS_P1;PMS_P2;Temp;Humidity;BMP_temperature;BMP_pressure;BME280_temperature;BME280_humidity;BME280_pressure;Samples;Min_cycle;Max_cycle;Signal;HPM_P1;HPM_P2
2022/01/27 10:12:28;;;;;;;21.43;16.93;;;1.90;99.90;;;;;;5067402;27;20564;-75
2022/01/27 10:15:00;;;;;;;24.70;17.70;;;3.20;99.90;;;;;;5067293;28;20460;-75
2022/01/27 10:17:28;;;;;;;20.90;17.00;;;3.00;99.90;;;;;;5067081;28;20445;-75
2022/01/27 10:19:57;;;;;;;19.40;15.80;;;3.10;99.90;;;;;;5067040;28;20479;-74
2022/01/27 10:22:24;;;;;;;17.23;15.40;;;3.20;99.90;;;;;;5067024;28;20455;-74
2022/01/27 10:25:01;;;;;;;20.67;15.80;;;3.20;99.90;;;;;;5066654;28;20516;-75
2022/01/27 10:27:34;;;;;;;16.23;14.73;;;3.40;99.90;;;;;;5066873;28;20993;-75
2022/01/27 10:32:47;;;;;;;16.90;14.73;;;3.50;99.90;;;;;;5055543;28;20442;-74
2022/01/27 10:35:16;;;;;;;16.83;15.23;;;3.60;99.90;;;;;;5066334;28;20601;-76
2022/01/27 10:37:53;;;;;;;18.20;16.50;;;3.60;99.90;;;;;;5066547;28;20456;-75
2022/01/27 10:40:25;;;;;;;17.60;15.00;;;3.40;99.90;;;;;;5066393;28;20801;-76
2022/01/27 10:43:13;;;;;;;21.20;17.97;;;3.20;99.90;;;;;;5066265;28;20453;-75
2022/01/27 10:46:00;;;;;;;15.53;13.93;;;3.10;99.90;;;;;;5066635;28;20530;-75
2022/01/27 10:48:30;;;;;;;19.00;16.13;;;3.20;99.90;;;;;;5066380;28;20973;-75
2022/01/27 10:51:04;;;;;;;18.30;16.40;;;3.10;99.90;;;;;;5066254;28;20487;-76
2022/01/27 10:53:51;;;;;;;19.23;15.80;;;3.30;99.90;;;;;;5066039;28;20740;-75
2022/01/27 10:56:20;;;;;;;20.20;16.60;;;3.20;99.90;;;;;;5065899;28;20517;-75
2022/01/27 10:58:48;;;;;;;21.57;19.10;;;3.30;99.90;;;;;;5065838;28;20456;-75
2022/01/27 11:01:38;;;;;;;22.07;16.90;;;3.30;99.90;;;;;;5065789;28;20458;-75
2022/01/27 11:04:06;;;;;;;17.70;15.80;;;3.30;99.90;;;;;;5041362;28;20590;-75
2022/01/27 11:06:34;;;;;;;17.77;16.00;;;3.30;99.90;;;;;;5045622;28;20972;-74
2022/01/27 11:09:07;;;;;;;24.23;18.47;;;3.30;99.90;;;;;;5045710;28;20456;-75
2022/01/27 11:11:35;;;;;;;20.40;17.43;;;3.40;99.90;;;;;;5042070;28;20494;-73
2022/01/27 11:14:04;;;;;;;25.47;17.40;;;3.30;99.90;;;;;;5032429;28;20609;-76
2022/01/27 11:16:36;;;;;;;19.43;16.73;;;3.30;99.90;;;;;;5032332;28;20452;-75
2022/01/27 11:22:02;;;;;;;19.03;15.23;;;3.20;99.90;;;;;;5016845;28;20437;-75
2022/01/27 11:24:36;;;;;;;17.20;15.47;;;3.30;99.90;;;;;;5032358;28;20457;-75
2022/01/27 11:27:05;;;;;;;18.53;15.67;;;3.40;99.90;;;;;;5032361;28;20453;-75
2022/01/27 11:29:46;;;;;;;17.97;16.07;;;3.40;99.90;;;;;;5032226;28;20552;-76
2022/01/27 11:32:22;;;;;;;22.30;18.50;;;3.40;99.90;;;;;;5032119;28;20482;-75
2022/01/27 11:34:51;;;;;;;22.97;18.03;;;3.40;99.90;;;;;;5032040;28;20449;-75
2022/01/27 11:37:30;;;;;;;24.70;19.33;;;3.30;99.90;;;;;;5032046;28;20460;-75
2022/01/27 11:39:57;;;;;;;18.97;16.97;;;3.40;99.90;;;;;;5032317;28;20848;-76
2022/01/27 11:42:57;;;;;;;19.30;17.37;;;3.50;99.90;;;;;;5032115;28;20499;-76
2022/01/27 11:45:35;;;;;;;22.97;17.70;;;3.40;99.90;;;;;;5029507;28;20458;-75
2022/01/27 11:48:08;;;;;;;19.97;17.80;;;3.30;99.90;;;;;;5031798;28;20454;-75
2022/01/27 11:50:49;;;;;;;21.43;17.50;;;3.30;99.90;;;;;;5031648;28;20563;-75
2022/01/27 11:53:30;;;;;;;19.30;17.30;;;3.50;99.90;;;;;;5031896;28;20451;-76
2022/01/27 11:55:57;;;;;;;19.40;17.33;;;3.70;99.90;;;;;;5032077;28;20473;-75
2022/01/27 11:58:25;;;;;;;19.30;16.87;;;3.90;99.90;;;;;;5031947;28;20470;-76
2022/01/27 12:01:06;;;;;;;19.70;15.03;;;3.90;99.90;;;;;;5031804;28;20471;-76
2022/01/27 12:03:33;;;;;;;21.93;15.07;;;3.90;99.90;;;;;;5031625;28;20482;-75
2022/01/27 12:06:15;;;;;;;23.03;17.53;;;3.90;99.90;;;;;;5031588;28;20455;-75
2022/01/27 12:08:42;;;;;;;23.23;17.20;;;4.00;99.90;;;;;;5031496;28;20456;-75
2022/01/27 12:11:11;;;;;;;21.77;16.93;;;4.10;99.90;;;;;;5031391;28;20501;-75
2022/01/27 12:13:59;;;;;;;19.33;17.33;;;4.10;99.90;;;;;;5031569;28;20462;-75
2022/01/27 12:16:41;;;;;;;22.50;17.67;;;4.00;99.90;;;;;;5031517;28;20547;-76
2022/01/27 12:19:09;;;;;;;19.10;17.07;;;4.10;99.90;;;;;;5031505;28;20938;-75
2022/01/27 12:21:39;;;;;;;20.67;16.47;;;4.00;99.90;;;;;;5031091;28;20460;-74
2022/01/27 12:24:19;;;;;;;22.33;17.47;;;4.20;99.90;;;;;;5030245;28;20459;-75
2022/01/27 12:26:47;;;;;;;25.27;15.40;;;4.20;99.90;;;;;;5031343;28;20852;-76
2022/01/27 12:29:22;;;;;;;27.20;17.30;;;4.20;99.90;;;;;;5031032;28;20452;-76
2022/01/27 12:31:50;;;;;;;22.07;14.30;;;4.30;99.90;;;;;;5031189;28;20884;-75
2022/01/27 12:34:17;;;;;;;17.73;15.83;;;4.30;99.90;;;;;;5030815;28;20452;-76
2022/01/27 12:37:02;;;;;;;18.93;16.97;;;4.20;99.90;;;;;;5030617;28;20457;-76
2022/01/27 12:39:31;;;;;;;19.90;15.90;;;4.40;99.90;;;;;;5030750;28;20456;-75
2022/01/27 12:42:01;;;;;;;18.70;16.73;;;4.30;99.90;;;;;;5030713;28;20468;-75
2022/01/27 12:44:29;;;;;;;21.60;15.63;;;4.20;99.90;;;;;;5030875;28;20447;-76
2022/01/27 12:47:18;;;;;;;20.07;17.97;;;4.20;99.90;;;;;;5031009;28;20460;-76
2022/01/27 12:49:47;;;;;;;19.90;16.33;;;4.20;99.90;;;;;;5025948;28;20820;-75
2022/01/27 12:52:16;;;;;;;17.43;15.70;;;4.10;99.90;;;;;;5030606;28;20491;-75
2022/01/27 12:54:45;;;;;;;17.20;15.53;;;4.00;99.90;;;;;;5030696;28;20455;-75
2022/01/27 12:57:13;;;;;;;17.87;15.90;;;4.20;99.90;;;;;;5031209;28;20453;-76
2022/01/27 12:59:42;;;;;;;17.13;15.30;;;4.20;99.90;;;;;;5030721;28;20452;-75
2022/01/27 13:02:10;;;;;;;24.63;17.00;;;4.20;99.90;;;;;;5030429;28;20870;-75
2022/01/27 13:04:40;;;;;;;29.17;16.83;;;4.30;99.90;;;;;;5030269;28;20445;-74
2022/01/27 13:07:07;;;;;;;19.00;17.07;;;4.40;99.90;;;;;;5030528;28;20451;-75
2022/01/27 13:09:35;;;;;;;18.67;15.90;;;4.60;99.90;;;;;;5030148;28;20449;-75
2022/01/27 13:12:15;;;;;;;17.40;15.03;;;4.50;99.90;;;;;;5030029;28;20852;-75
2022/01/27 13:14:57;;;;;;;20.87;18.00;;;4.50;99.90;;;;;;5030552;28;20472;-76
2022/01/27 13:17:30;;;;;;;18.90;17.10;;;4.50;99.90;;;;;;5030418;28;20560;-74
2022/01/27 13:20:14;;;;;;;23.73;19.57;;;4.50;99.90;;;;;;5030368;28;20523;-74
2022/01/27 13:22:49;;;;;;;21.03;18.67;;;4.60;99.90;;;;;;5030476;28;20453;-76
2022/01/27 13:25:16;;;;;;;19.30;17.27;;;4.60;99.90;;;;;;5030420;28;20454;-76
2022/01/27 13:27:43;;;;;;;18.23;16.20;;;4.60;99.90;;;;;;5030408;28;20460;-74
2022/01/27 13:30:11;;;;;;;26.60;17.03;;;4.60;99.90;;;;;;5030405;28;20938;-74
2022/01/27 13:32:39;;;;;;;26.20;18.00;;;4.70;99.90;;;;;;5029748;28;20485;-74
2022/01/27 13:35:09;;;;;;;17.97;16.20;;;4.70;99.90;;;;;;5029441;28;20548;-74
2022/01/27 13:37:38;;;;;;;17.97;16.10;;;4.70;99.90;;;;;;5029702;28;20449;-76
2022/01/27 13:42:55;;;;;;;21.60;17.63;;;4.80;99.90;;;;;;5029899;28;20427;-75
2022/01/27 13:45:22;;;;;;;18.10;16.50;;;4.80;99.90;;;;;;5029754;28;20503;-75
2022/01/27 13:47:49;;;;;;;22.80;17.67;;;4.90;99.90;;;;;;5029640;28;20483;-75
2022/01/27 13:50:19;;;;;;;23.70;15.93;;;4.90;99.90;;;;;;5029592;28;20994;-75
2022/01/27 13:52:49;;;;;;;17.70;16.00;;;5.20;99.90;;;;;;5029625;28;20576;-75
2022/01/27 13:55:19;;;;;;;19.73;17.83;;;5.30;99.90;;;;;;5029738;28;20461;-76
2022/01/27 13:57:52;;;;;;;17.00;15.60;;;5.40;99.90;;;;;;5029465;28;20541;-74
2022/01/27 14:00:22;;;;;;;18.53;16.17;;;5.40;99.90;;;;;;5029625;28;20450;-75
2022/01/27 14:02:53;;;;;;;18.30;16.50;;;5.80;99.90;;;;;;5029232;28;20483;-75
2022/01/27 14:05:22;;;;;;;17.87;15.97;;;5.80;99.90;;;;;;5029231;28;20551;-75
2022/01/27 14:07:51;;;;;;;18.00;16.13;;;6.00;99.90;;;;;;5029185;28;20462;-75
2022/01/27 14:10:22;;;;;;;17.07;15.23;;;6.10;99.90;;;;;;5029301;28;20544;-75
2022/01/27 14:12:54;;;;;;;16.53;15.13;;;6.20;99.90;;;;;;5029377;28;20498;-75
2022/01/27 14:15:29;;;;;;;18.97;17.30;;;6.30;99.90;;;;;;5029575;28;20483;-75
2022/01/27 14:18:00;;;;;;;17.23;15.50;;;6.20;99.90;;;;;;5029467;28;21018;-75
2022/01/27 14:20:28;;;;;;;15.60;14.10;;;6.30;99.90;;;;;;5029834;28;20454;-75
2022/01/27 14:23:14;;;;;;;16.30;14.67;;;6.50;99.90;;;;;;5029708;28;20449;-76
2022/01/27 14:25:46;;;;;;;17.20;15.57;;;6.60;99.90;;;;;;5029785;28;20455;-75
2022/01/27 14:28:13;;;;;;;16.83;14.83;;;6.50;99.90;;;;;;5029506;28;20951;-75
2022/01/27 14:30:40;;;;;;;15.27;14.07;;;6.60;99.90;;;;;;5029605;28;20462;-75
2022/01/27 14:33:06;;;;;;;19.73;17.93;;;6.50;99.90;;;;;;5029121;28;20510;-75
2022/01/27 14:35:34;;;;;;;15.77;14.50;;;6.50;99.90;;;;;;5029300;28;20464;-75
2022/01/27 14:38:01;;;;;;;18.77;16.83;;;6.40;99.90;;;;;;5029156;28;20454;-75
2022/01/27 14:40:28;;;;;;;13.53;12.33;;;6.20;99.90;;;;;;5029233;28;20455;-75
2022/01/27 14:42:59;;;;;;;24.20;13.27;;;6.10;99.90;;;;;;5029501;28;20451;-75
2022/01/27 14:45:26;;;;;;;19.13;14.63;;;6.10;99.90;;;;;;5029707;28;20962;-75
2022/01/27 14:47:58;;;;;;;15.07;12.90;;;6.00;99.90;;;;;;5031236;28;20944;-75
2022/01/27 14:50:26;;;;;;;18.47;16.57;;;6.00;99.90;;;;;;5033184;28;20490;-75
2022/01/27 14:52:56;;;;;;;16.83;15.27;;;6.00;99.90;;;;;;5032947;28;20490;-75
2022/01/27 14:55:22;;;;;;;16.00;14.50;;;6.00;99.90;;;;;;5033167;28;20511;-75
2022/01/27 14:57:50;;;;;;;15.30;14.00;;;6.00;99.90;;;;;;5032966;28;20958;-75
2022/01/27 15:00:19;;;;;;;17.53;15.90;;;6.00;99.90;;;;;;5032655;28;20488;-75
2022/01/27 15:02:45;;;;;;;16.50;13.53;;;5.90;99.90;;;;;;5032492;28;20467;-75
2022/01/27 15:05:12;;;;;;;17.80;14.77;;;5.90;99.90;;;;;;5032808;28;20451;-75
2022/01/27 15:07:41;;;;;;;20.20;14.77;;;5.90;99.90;;;;;;5032989;28;20461;-75
2022/01/27 15:10:12;;;;;;;15.10;13.60;;;6.00;99.90;;;;;;5032452;28;20810;-76
2022/01/27 15:12:39;;;;;;;14.63;13.20;;;6.00;99.90;;;;;;5032707;28;20492;-76
2022/01/27 15:20:37;;;;;;;13.40;12.20;;;5.90;99.90;;;;;;5032475;28;20530;-75
2022/01/27 15:23:05;;;;;;;15.30;13.80;;;5.80;99.90;;;;;;5032316;28;20883;-76
2022/01/27 15:25:33;;;;;;;17.30;15.40;;;5.90;99.90;;;;;;5032123;28;20967;-75
2022/01/27 15:28:00;;;;;;;15.67;14.40;;;5.90;99.90;;;;;;5032119;28;20956;-75
2022/01/27 15:30:27;;;;;;;15.97;13.40;;;5.90;99.90;;;;;;5032345;28;20860;-76
2022/01/27 15:32:53;;;;;;;17.40;15.70;;;5.90;99.90;;;;;;5032038;28;20493;-75
2022/01/27 15:35:21;;;;;;;15.80;14.30;;;5.80;99.90;;;;;;5032108;28;20453;-75
2022/01/27 15:37:48;;;;;;;19.57;17.67;;;5.80;99.90;;;;;;5031972;28;20463;-75
2022/01/27 15:40:19;;;;;;;14.50;13.30;;;5.80;99.90;;;;;;5032003;28;20449;-75
2022/01/27 15:42:48;;;;;;;17.80;16.30;;;5.80;99.90;;;;;;5031991;28;20463;-75
2022/01/27 15:45:15;;;;;;;20.13;18.23;;;5.70;99.90;;;;;;5031706;28;20797;-75
2022/01/27 15:47:42;;;;;;;21.60;20.07;;;5.60;99.90;;;;;;5032114;28;20475;-76
2022/01/27 15:50:11;;;;;;;23.33;21.73;;;5.40;99.90;;;;;;5031991;28;20464;-76
2022/01/27 15:52:40;;;;;;;24.73;22.73;;;5.30;99.90;;;;;;5031654;28;20480;-76
2022/01/27 15:55:09;;;;;;;26.60;24.50;;;5.10;99.90;;;;;;5031707;28;20448;-76
2022/01/27 15:57:37;;;;;;;29.30;27.13;;;5.00;99.90;;;;;;5031525;28;20477;-76
2022/01/27 16:00:07;;;;;;;33.23;30.73;;;5.00;99.90;;;;;;5031713;28;20488;-75
2022/01/27 16:02:34;;;;;;;34.60;32.33;;;4.90;99.90;;;;;;5031367;28;20793;-73
2022/01/27 16:05:01;;;;;;;33.33;31.00;;;4.80;99.90;;;;;;5031370;28;20837;-74
2022/01/27 16:07:27;;;;;;;34.17;31.47;;;4.60;99.90;;;;;;5031572;28;20453;-74
2022/01/27 16:09:54;;;;;;;33.47;30.87;;;4.50;99.90;;;;;;5031888;28;20445;-74
2022/01/27 16:12:21;;;;;;;30.63;28.40;;;4.50;99.90;;;;;;5030934;28;20499;-74
2022/01/27 16:14:51;;;;;;;34.03;31.13;;;4.50;99.90;;;;;;5031322;28;20492;-74
2022/01/27 16:17:20;;;;;;;33.00;30.60;;;4.50;99.90;;;;;;5030974;28;20534;-75
2022/01/27 16:19:47;;;;;;;35.10;31.70;;;4.40;99.90;;;;;;5031423;28;20729;-74
2022/01/27 16:22:16;;;;;;;34.57;31.67;;;4.50;99.90;;;;;;5031091;28;20948;-74
2022/01/27 16:24:43;;;;;;;33.33;30.33;;;4.50;99.90;;;;;;5031232;28;20445;-73
2022/01/27 16:27:09;;;;;;;35.80;33.00;;;4.50;99.90;;;;;;5031252;28;20453;-74
2022/01/27 16:29:36;;;;;;;35.80;33.00;;;4.40;99.90;;;;;;5031028;28;20478;-72
2022/01/27 16:32:03;;;;;;;34.73;32.13;;;4.40;99.90;;;;;;5030619;28;20484;-71
2022/01/27 16:34:31;;;;;;;33.50;30.70;;;4.40;99.90;;;;;;5030698;28;20453;-70
2022/01/27 16:36:59;;;;;;;32.43;29.83;;;4.40;99.90;;;;;;5030817;28;20505;-72
2022/01/27 16:39:26;;;;;;;33.57;31.07;;;4.40;99.90;;;;;;5030991;28;20514;-72
2022/01/27 16:41:52;;;;;;;35.33;32.33;;;4.40;99.90;;;;;;5030674;28;20454;-72
2022/01/27 16:44:19;;;;;;;34.17;31.47;;;4.40;99.90;;;;;;5030727;28;20502;-72
2022/01/27 16:46:46;;;;;;;34.13;31.43;;;4.40;99.90;;;;;;5030480;28;20452;-73
2022/01/27 16:49:13;;;;;;;35.30;32.43;;;4.40;99.90;;;;;;5030526;28;20449;-73
2022/01/27 16:51:41;;;;;;;33.00;30.20;;;4.40;99.90;;;;;;5030754;28;20454;-73
2022/01/27 16:54:08;;;;;;;33.53;30.70;;;4.40;99.90;;;;;;5030611;28;20575;-73
2022/01/27 16:56:35;;;;;;;39.10;31.17;;;4.40;99.90;;;;;;5030386;28;20455;-73
2022/01/27 16:59:02;;;;;;;32.33;29.60;;;4.40;99.90;;;;;;5030386;28;20449;-73
2022/01/27 17:01:28;;;;;;;32.93;30.23;;;4.40;99.90;;;;;;5030402;28;20464;-73
2022/01/27 17:03:55;;;;;;;31.73;29.33;;;4.40;99.90;;;;;;5030517;28;20469;-74
2022/01/27 17:06:23;;;;;;;31.17;28.60;;;4.40;99.90;;;;;;5030261;28;20448;-73
2022/01/27 17:08:51;;;;;;;31.07;28.57;;;4.50;99.90;;;;;;5030053;28;20832;-74
2022/01/27 17:11:17;;;;;;;30.30;27.90;;;4.50;99.90;;;;;;5029595;28;21078;-74
2022/01/27 17:13:44;;;;;;;32.13;29.43;;;4.50;99.90;;;;;;5030058;28;20996;-73
2022/01/27 17:16:13;;;;;;;27.67;25.67;;;4.60;99.90;;;;;;5030314;28;20455;-73
2022/01/27 17:18:40;;;;;;;30.87;28.37;;;4.50;99.90;;;;;;5030265;28;20503;-73
2022/01/27 17:21:07;;;;;;;27.40;25.30;;;4.50;99.90;;;;;;5030240;28;20453;-74
2022/01/27 17:23:36;;;;;;;26.97;24.80;;;4.50;99.90;;;;;;5030015;28;20449;-74
2022/01/27 17:26:05;;;;;;;27.57;24.80;;;4.50;99.90;;;;;;5029886;28;20453;-73
2022/01/27 17:28:32;;;;;;;26.40;24.40;;;4.60;99.90;;;;;;5029785;28;20467;-73
2022/01/27 17:30:59;;;;;;;24.33;22.43;;;4.60;99.90;;;;;;5029920;28;20449;-74
2022/01/27 17:33:26;;;;;;;24.37;22.43;;;4.70;99.90;;;;;;5029965;28;21075;-73
2022/01/27 17:35:53;;;;;;;23.97;22.00;;;4.70;99.90;;;;;;5029978;28;20472;-73
2022/01/27 17:38:19;;;;;;;23.83;21.87;;;4.70;99.90;;;;;;5029638;28;20460;-73
2022/01/27 17:40:47;;;;;;;26.33;23.67;;;4.70;99.90;;;;;;5029623;28;20456;-74
2022/01/27 17:43:20;;;;;;;25.63;23.73;;;4.70;99.90;;;;;;5029425;28;20453;-74
2022/01/27 17:45:48;;;;;;;27.50;25.20;;;4.80;99.90;;;;;;5029536;28;20459;-74
2022/01/27 17:48:15;;;;;;;29.57;27.13;;;4.80;99.90;;;;;;5029545;28;20463;-73
2022/01/27 17:50:42;;;;;;;29.30;26.80;;;4.70;99.90;;;;;;5029765;28;20461;-73
2022/01/27 17:53:09;;;;;;;28.03;25.33;;;4.70;99.90;;;;;;5029778;28;20488;-71
2022/01/27 17:55:36;;;;;;;31.00;28.50;;;4.60;99.90;;;;;;5029610;28;20453;-73
2022/01/27 17:58:02;;;;;;;31.00;28.50;;;4.60;99.90;;;;;;5029527;28;20875;-73
